Time;durP1;ratioP1;P1;durP2;ratioP2;P2;SDS_P1;SDS_P2;PMS_P1;PMS_P2;Temp;Humidity;BMP_temperature;BMP_pressure;BME280_temperature;BME280_humidity;BME280_pressure;Samples;Min_cycle;Max_cycle;Signal;HPM_P1;HPM_P2
2022/09/27 05:22:46;;;;;;;0.67;0.67;;;;;;;20.38;50.79;98305.70;1950458;71;28023;-66
2022/09/27 05:25:35;;;;;;;0.70;0.68;;;;;;;20.89;50.33;98305.91;1913631;73;27983;-68
2022/09/27 05:28:25;;;;;;;0.70;0.70;;;;;;;21.76;49.28;98306.73;1980197;70;27872;-70
2022/09/27 05:31:15;;;;;;;1.10;0.70;;;;;;;22.44;47.82;98308.77;1992743;70;27761;-68
2022/09/27 05:34:07;;;;;;;0.62;0.62;;;;;;;22.98;46.63;98309.44;2003908;70;27847;-68
2022/09/27 05:36:56;;;;;;;0.85;0.65;;;;;;;23.42;45.54;98308.56;1998380;70;27802;-70
2022/09/27 05:39:45;;;;;;;0.78;0.78;;;;;;;23.77;44.65;98302.66;1912070;74;28142;-69
2022/09/27 05:42:38;;;;;;;0.68;0.68;;;;;;;24.05;43.80;98298.58;1994875;70;27743;-69
2022/09/27 05:45:25;;;;;;;0.80;0.80;;;;;;;24.32;43.24;98291.50;1982395;70;28243;-70
2022/09/27 05:48:15;;;;;;;0.70;0.70;;;;;;;24.49;42.68;98288.73;1979204;70;27769;-70
2022/09/27 05:51:07;;;;;;;0.80;0.80;;;;;;;24.67;42.16;98290.91;1984077;70;27777;-69
2022/09/27 05:53:58;;;;;;;0.55;0.55;;;;;;;24.84;41.74;98296.13;1993828;70;27808;-68
2022/09/27 05:56:48;;;;;;;0.65;0.65;;;;;;;24.91;41.50;98284.84;2004702;70;27780;-69
2022/09/27 05:59:40;;;;;;;0.78;0.60;;;;;;;25.06;41.18;98298.55;1982392;70;27755;-69
2022/09/27 06:02:34;;;;;;;1.30;0.50;;;;;;;25.14;40.87;98299.33;1964320;72;27795;-68
2022/09/27 06:05:40;;;;;;;1.90;0.60;;;;;;;25.22;40.64;98302.89;1971047;72;27790;-69
2022/09/27 06:08:48;;;;;;;0.50;0.50;;;;;;;25.27;40.36;98307.00;1980135;72;27772;-68
2022/09/27 06:11:41;;;;;;;0.60;0.60;;;;;;;25.30;40.14;98300.92;1964349;72;27849;-68
2022/09/27 06:14:33;;;;;;;0.55;0.55;;;;;;;25.34;39.93;98307.53;1979642;72;27820;-68
2022/09/27 06:17:23;;;;;;;0.60;0.60;;;;;;;25.37;39.77;98309.69;1978964;72;27828;-68
2022/09/27 06:20:12;;;;;;;0.60;0.60;;;;;;;25.38;39.56;98305.84;1955634;72;27858;-68
2022/09/27 06:23:09;;;;;;;0.68;0.68;;;;;;;25.46;39.33;98309.44;1942490;71;27933;-68
2022/09/27 17:16:04;;;;;;;0.90;0.40;;;;;;;20.25;49.99;98448.67;1951014;72;28075;-67
2022/09/27 17:18:52;;;;;;;0.68;0.60;;;;;;;20.60;49.62;98449.84;1927117;73;28016;-67
2022/09/27 17:21:42;;;;;;;0.90;0.35;;;;;;;21.41;48.26;98447.87;1921123;73;27981;-73
2022/09/27 17:24:31;;;;;;;0.55;0.55;;;;;;;22.09;47.10;98452.04;1901864;75;28114;-71
2022/09/27 17:27:20;;;;;;;1.03;0.30;;;;;;;22.63;46.01;98446.89;1924118;73;28258;-71
2022/09/27 17:30:09;;;;;;;0.50;0.50;;;;;;;23.10;45.18;98436.05;1908845;73;28190;-71
2022/09/27 17:32:59;;;;;;;1.10;0.53;;;;;;;23.49;44.48;98440.70;1911842;73;28055;-71
2022/09/27 17:35:47;;;;;;;0.50;0.50;;;;;;;23.78;43.76;98436.48;1913079;73;28048;-71
2022/09/27 17:38:36;;;;;;;0.80;0.50;;;;;;;24.00;43.23;98437.09;1903387;75;28298;-71
2022/09/27 17:41:25;;;;;;;0.50;0.50;;;;;;;24.20;42.64;98438.55;1907008;73;28086;-70
2022/09/27 17:44:16;;;;;;;1.20;0.50;;;;;;;24.36;42.26;98443.02;1902051;75;28244;-72
2022/09/27 17:50:27;;;;;;;0.35;0.35;;;;;;;24.63;41.48;98435.36;1906612;73;28025;-73
2022/09/27 17:53:15;;;;;;;0.47;0.47;;;;;;;24.76;41.28;98449.65;1882536;73;28156;-71
2022/09/27 17:56:03;;;;;;;1.47;0.40;;;;;;;24.86;41.04;98459.28;1903475;73;28193;-71
2022/09/27 17:58:54;;;;;;;0.93;0.45;;;;;;;24.98;40.79;98459.84;1901516;73;28158;-71
2022/09/27 18:01:46;;;;;;;0.40;0.40;;;;;;;25.07;40.52;98447.19;1904047;73;28120;-72
2022/09/27 18:04:35;;;;;;;0.40;0.37;;;;;;;25.14;40.25;98449.94;1904360;73;28203;-72
2022/09/27 18:07:23;;;;;;;0.40;0.40;;;;;;;25.22;40.03;98454.06;1915685;73;28058;-72
2022/09/27 18:10:15;;;;;;;0.30;0.30;;;;;;;25.29;39.85;98451.85;1901567;73;28066;-73
2022/09/27 18:13:04;;;;;;;0.50;0.50;;;;;;;25.32;39.70;98452.68;1901085;73;28170;-73
2022/09/27 18:15:58;;;;;;;1.40;0.62;;;;;;;25.37;39.56;98452.64;1897614;73;28305;-72
2022/09/27 18:18:48;;;;;;;0.50;0.50;;;;;;;25.41;39.45;98471.63;1895160;74;28006;-73
2022/09/27 18:21:38;;;;;;;0.40;0.40;;;;;;;25.44;39.38;98465.59;1893156;74;28244;-73
2022/09/27 18:24:26;;;;;;;0.30;0.30;;;;;;;25.48;39.26;98466.70;1899016;74;28110;-72
2022/09/27 18:27:17;;;;;;;0.55;0.55;;;;;;;25.55;39.06;98468.61;1895534;74;28545;-74
2022/09/27 18:30:08;;;;;;;0.40;0.40;;;;;;;25.57;38.96;98476.57;1898653;74;28126;-74
2022/09/27 18:32:56;;;;;;;0.30;0.30;;;;;;;25.58;38.80;98483.73;1891252;74;28114;-72
2022/09/27 18:35:44;;;;;;;0.90;0.50;;;;;;;25.59;38.79;98484.82;1903699;74;28184;-72
2022/09/27 18:38:34;;;;;;;0.80;0.30;;;;;;;25.61;38.71;98482.61;1902267;74;29004;-68
2022/09/27 18:41:23;;;;;;;0.50;0.50;;;;;;;25.63;38.60;98479.57;1897863;74;28010;-70
2022/09/27 18:44:13;;;;;;;0.60;0.60;;;;;;;25.64;38.40;98481.23;1897735;74;28186;-70
2022/09/27 18:47:02;;;;;;;0.90;0.40;;;;;;;25.64;38.47;98479.86;1895608;73;28182;-70
2022/09/27 18:49:50;;;;;;;0.70;0.50;;;;;;;25.67;38.46;98478.73;1895899;74;28057;-70
2022/09/27 18:52:38;;;;;;;0.25;0.25;;;;;;;25.68;38.42;98477.64;1863744;74;28277;-71
2022/09/27 18:55:27;;;;;;;0.42;0.42;;;;;;;25.70;38.34;98474.60;1899127;74;28118;-71
2022/09/27 18:58:16;;;;;;;0.40;0.40;;;;;;;25.72;38.28;98482.84;1897066;73;28158;-70
